Time;durP1;ratioP1;P1;durP2;ratioP2;P2;SDS_P1;SDS_P2;PMS_P1;PMS_P2;Temp;Humidity;BMP_temperature;BMP_pressure;BME280_temperature;BME280_humidity;BME280_pressure;Samples;Min_cycle;Max_cycle;Signal;HPM_P1;HPM_P2
2021/03/15 00:00:14;;;;;;;;;;;;;;;1.14;100.00;95463.47;1021079;28;19914;-72
2021/03/15 00:00:44;;;;;;;;;;;;;;;1.13;100.00;95456.72;1026080;28;19907;-69
2021/03/15 00:01:15;;;;;;;;;;;;;;;1.14;100.00;95459.13;1024965;28;19974;-72
2021/03/15 00:01:45;;;;;;;;;;;;;;;1.13;100.00;95456.72;1030474;28;19975;-71
2021/03/15 00:02:15;;;;;;;;;;;;;;;1.11;100.00;95459.53;1018224;29;19954;-69
2021/03/15 00:02:47;;;;;;;;;;;;;;;1.14;100.00;95466.88;1019498;29;20424;-70
2021/03/15 00:03:17;;;;;;;;;;;;;;;1.14;100.00;95459.13;1024026;29;19946;-69
2021/03/15 00:03:48;;;;;;;;;;;;;;;1.16;100.00;95459.69;1023107;28;20469;-69
2021/03/15 00:04:18;;;;;;;;;;;;;;;1.14;100.00;95464.28;1025919;28;19914;-69
2021/03/15 00:04:48;;;;;;;;;;;;;;;1.14;100.00;95464.28;1019087;29;20057;-69
2021/03/15 00:05:18;;;;;;;;;;;;;;;1.15;100.00;95467.66;1016081;29;19911;-70
2021/03/15 00:05:49;;;;;;;;;;;;;;;1.16;100.00;95467.44;1011073;29;20693;-70
2021/03/15 00:06:19;;;;;;;;;;;;;;;1.15;100.00;95465.84;1013549;29;19999;-70
2021/03/15 00:06:49;;;;;;;;;;;;;;;1.16;100.00;95467.44;1027655;28;19914;-69
2021/03/15 00:07:20;;;;;;;;;;;;;;;1.15;100.00;95460.69;1032104;28;19913;-70
2021/03/15 00:07:50;;;;;;;;;;;;;;;1.14;100.00;95469.44;1029746;28;19921;-68
2021/03/15 00:08:20;;;;;;;;;;;;;;;1.16;100.00;95461.47;1021748;29;19942;-69
2021/03/15 00:08:51;;;;;;;;;;;;;;;1.15;100.00;95457.31;1023315;29;19915;-69
2021/03/15 00:09:21;;;;;;;;;;;;;;;1.13;100.00;95470.44;1023871;29;19917;-71
2021/03/15 00:09:51;;;;;;;;;;;;;;;1.13;100.00;95473.00;1027021;28;20434;-70
2021/03/15 00:10:22;;;;;;;;;;;;;;;0.92;100.00;95435.41;1022809;28;19965;-71
2021/03/15 00:10:52;;;;;;;;;;;;;;;1.13;100.00;95467.06;1017992;29;19954;-70
2021/03/15 00:11:23;;;;;;;;;;;;;;;1.11;100.00;95474.25;1029244;28;20523;-70
2021/03/15 00:11:53;;;;;;;;;;;;;;;1.12;100.00;95466.28;1027839;28;20311;-70
2021/03/15 00:12:24;;;;;;;;;;;;;;;1.12;100.00;95473.25;1018017;29;19915;-69
2021/03/15 00:12:54;;;;;;;;;;;;;;;1.14;100.00;95466.88;1022129;28;20596;-72
2021/03/15 00:13:24;;;;;;;;;;;;;;;1.12;100.00;95473.25;1019829;29;19953;-71
2021/03/15 00:13:55;;;;;;;;;;;;;;;1.12;100.00;95474.03;1020095;29;19914;-69
2021/03/15 00:14:25;;;;;;;;;;;;;;;1.11;100.00;95469.88;1022002;29;19916;-69
2021/03/15 00:14:55;;;;;;;;;;;;;;;1.13;100.00;95478.19;1021985;28;19919;-69
2021/03/15 00:15:26;;;;;;;;;;;;;;;1.11;100.00;95471.66;1027846;28;19910;-68
2021/03/15 00:15:57;;;;;;;;;;;;;;;1.13;100.00;95473.00;1019937;29;19915;-69
2021/03/15 00:16:27;;;;;;;;;;;;;;;1.12;100.00;95470.66;1018831;29;19911;-69
2021/03/15 00:16:57;;;;;;;;;;;;;;;1.10;100.00;95473.44;1021695;28;20408;-72
2021/03/15 00:17:28;;;;;;;;;;;;;;;1.10;100.00;95473.44;1027712;28;20009;-70
2021/03/15 00:17:58;;;;;;;;;;;;;;;1.08;100.00;95465.13;1027699;28;19922;-71
2021/03/15 00:18:30;;;;;;;;;;;;;;;1.09;100.00;95471.06;1026818;28;20308;-70
2021/03/15 00:19:00;;;;;;;;;;;;;;;1.10;100.00;95465.69;1021755;29;20001;-70
2021/03/15 00:19:30;;;;;;;;;;;;;;;1.11;100.00;95469.09;1023892;28;19973;-70
2021/03/15 00:20:01;;;;;;;;;;;;;;;1.09;100.00;95460.75;1023635;28;19982;-70
2021/03/15 00:20:32;;;;;;;;;;;;;;;1.11;100.00;95459.53;1022372;28;20357;-68
2021/03/15 00:21:03;;;;;;;;;;;;;;;1.09;100.00;95469.28;1021888;28;20933;-71
2021/03/15 00:21:33;;;;;;;;;;;;;;;1.09;100.00;95471.84;1029304;28;19915;-71
2021/03/15 00:22:03;;;;;;;;;;;;;;;1.10;100.00;95465.69;1032024;28;19926;-67
2021/03/15 00:22:34;;;;;;;;;;;;;;;1.10;100.00;95465.69;1033132;28;19918;-68
2021/03/15 00:23:04;;;;;;;;;;;;;;;1.11;100.00;95471.66;1034970;28;19924;-69
2021/03/15 00:23:34;;;;;;;;;;;;;;;1.10;100.00;95468.25;1035784;28;19949;-69
2021/03/15 00:24:05;;;;;;;;;;;;;;;1.10;100.00;95473.44;1027846;28;19926;-71
2021/03/15 00:24:35;;;;;;;;;;;;;;;1.08;100.00;95472.88;1013922;29;19915;-70
2021/03/15 00:25:06;;;;;;;;;;;;;;;1.08;100.00;95467.69;1018188;29;19955;-70
2021/03/15 00:25:36;;;;;;;;;;;;;;;1.08;100.00;95459.16;1023460;29;19953;-68
2021/03/15 00:26:06;;;;;;;;;;;;;;;1.07;100.00;95462.72;1023995;29;19921;-70
2021/03/15 00:26:37;;;;;;;;;;;;;;;1.07;100.00;95457.56;1021489;29;19926;-69
2021/03/15 00:27:07;;;;;;;;;;;;;;;1.07;100.00;95468.69;1022468;29;19918;-72
2021/03/15 00:27:39;;;;;;;;;;;;;;;1.08;100.00;95470.28;1023661;28;19982;-70
2021/03/15 00:28:09;;;;;;;;;;;;;;;1.07;100.00;95468.69;1031850;28;19993;-69
2021/03/15 00:28:39;;;;;;;;;;;;;;;1.08;100.00;95475.44;1030107;28;19913;-69
2021/03/15 00:29:10;;;;;;;;;;;;;;;1.08;100.00;95469.50;1030649;28;19952;-71
2021/03/15 00:29:40;;;;;;;;;;;;;;;1.06;100.00;95472.28;1031436;28;19972;-70
2021/03/15 00:30:12;;;;;;;;;;;;;;;1.08;100.00;95475.44;1029635;28;21371;-69
2021/03/15 00:30:42;;;;;;;;;;;;;;;1.08;100.00;95472.88;1026176;28;19914;-68
2021/03/15 00:31:12;;;;;;;;;;;;;;;1.08;100.00;95474.66;1022716;28;19917;-70
2021/03/15 00:31:43;;;;;;;;;;;;;;;1.09;100.00;95473.66;1018360;29;19911;-71
2021/03/15 00:32:13;;;;;;;;;;;;;;;1.09;100.00;95481.41;1019915;29;20475;-69
2021/03/15 00:32:44;;;;;;;;;;;;;;;0.85;100.00;95439.84;1019250;29;19921;-67
2021/03/15 00:33:14;;;;;;;;;;;;;;;1.09;100.00;95468.50;1021835;28;19986;-70
2021/03/15 00:33:44;;;;;;;;;;;;;;;1.07;100.00;95471.25;1026837;28;19915;-69
2021/03/15 00:34:15;;;;;;;;;;;;;;;1.08;100.00;95472.88;1024054;29;20036;-69
2021/03/15 00:34:45;;;;;;;;;;;;;;;1.07;100.00;95478.22;1019609;29;19922;-68
2021/03/15 00:35:16;;;;;;;;;;;;;;;1.07;100.00;95473.06;1019279;29;19966;-70
2021/03/15 00:35:46;;;;;;;;;;;;;;;1.06;100.00;95472.28;1024328;28;20451;-69
2021/03/15 00:36:16;;;;;;;;;;;;;;;1.08;100.00;95472.09;1023899;28;19911;-69
2021/03/15 00:36:47;;;;;;;;;;;;;;;1.07;100.00;95473.84;1027562;28;19910;-71
2021/03/15 00:37:17;;;;;;;;;;;;;;;1.07;100.00;95478.22;1021785;29;19923;-71
2021/03/15 00:37:47;;;;;;;;;;;;;;;1.10;100.00;95467.47;1018403;29;19911;-69
2021/03/15 00:38:17;;;;;;;;;;;;;;;1.08;100.00;95470.28;1023591;29;19918;-71
2021/03/15 00:38:48;;;;;;;;;;;;;;;1.10;100.00;95478.59;1030786;28;19918;-70
2021/03/15 00:39:18;;;;;;;;;;;;;;;1.11;100.00;95471.66;1034898;28;19948;-68
2021/03/15 00:39:48;;;;;;;;;;;;;;;1.09;100.00;95471.06;1037813;28;19925;-71
2021/03/15 00:40:20;;;;;;;;;;;;;;;1.09;100.00;95473.66;1033357;28;19979;-69
2021/03/15 00:40:50;;;;;;;;;;;;;;;1.08;100.00;95470.28;1031121;28;19918;-71
2021/03/15 00:41:20;;;;;;;;;;;;;;;1.09;100.00;95471.84;1025581;28;19910;-70
2021/03/15 00:41:51;;;;;;;;;;;;;;;1.08;100.00;95472.88;1017374;29;19938;-70
2021/03/15 00:42:21;;;;;;;;;;;;;;;1.07;100.00;95475.66;1015716;29;19911;-70
2021/03/15 00:42:52;;;;;;;;;;;;;;;1.07;100.00;95471.25;1015996;29;19926;-71
2021/03/15 00:43:22;;;;;;;;;;;;;;;1.07;100.00;95468.69;1017982;28;20001;-71
2021/03/15 00:43:52;;;;;;;;;;;;;;;1.08;100.00;95470.28;1029337;28;19917;-69
2021/03/15 00:44:23;;;;;;;;;;;;;;;1.09;100.00;95476.25;1035600;28;19914;-70
2021/03/15 00:44:53;;;;;;;;;;;;;;;1.09;100.00;95466.69;1035867;28;19924;-70
2021/03/15 00:45:24;;;;;;;;;;;;;;;1.10;100.00;95470.84;1031624;28;19980;-68
2021/03/15 00:45:54;;;;;;;;;;;;;;;1.11;100.00;95475.03;1030931;28;19913;-70
2021/03/15 00:46:24;;;;;;;;;;;;;;;1.10;100.00;95470.84;1031616;28;20445;-70
2021/03/15 00:46:55;;;;;;;;;;;;;;;1.09;100.00;95471.84;1032115;28;19921;-68
2021/03/15 00:47:25;;;;;;;;;;;;;;;1.08;100.00;95474.66;1034837;28;19952;-70
2021/03/15 00:47:55;;;;;;;;;;;;;;;1.08;100.00;95474.66;1033591;28;19917;-70
2021/03/15 00:48:25;;;;;;;;;;;;;;;1.07;100.00;95473.84;1027559;28;20462;-70
2021/03/15 00:48:56;;;;;;;;;;;;;;;1.07;100.00;95479.00;1024141;28;19922;-69
2021/03/15 00:49:26;;;;;;;;;;;;;;;1.09;100.00;95478.81;1023921;29;19977;-71
2021/03/15 00:49:56;;;;;;;;;;;;;;;1.09;100.00;95471.06;1020584;28;19966;-70
2021/03/15 00:50:30;;;;;;;;;;;;;;;1.10;100.00;95465.69;1026466;28;19957;-69
2021/03/15 00:51:01;;;;;;;;;;;;;;;1.08;100.00;95467.69;1020599;29;19914;-69
2021/03/15 00:51:31;;;;;;;;;;;;;;;1.07;100.00;95468.69;1019506;29;20512;-70
2021/03/15 00:52:01;;;;;;;;;;;;;;;1.05;100.00;95465.53;1019075;28;19919;-69
2021/03/15 00:52:31;;;;;;;;;;;;;;;1.06;100.00;95467.09;1028726;28;20018;-69
2021/03/15 00:53:02;;;;;;;;;;;;;;;1.07;100.00;95463.50;1031800;28;19926;-71
2021/03/15 00:53:32;;;;;;;;;;;;;;;1.09;100.00;95465.91;1030842;28;19917;-71
2021/03/15 00:54:03;;;;;;;;;;;;;;;1.06;100.00;95464.53;1025173;28;19945;-70
2021/03/15 00:54:33;;;;;;;;;;;;;;;1.07;100.00;95463.50;1027487;28;19918;-70
2021/03/15 00:55:03;;;;;;;;;;;;;;;1.06;100.00;95468.91;1024020;28;19923;-71
2021/03/15 00:55:34;;;;;;;;;;;;;;;1.05;100.00;95464.75;1025990;28;19945;-68
2021/03/15 00:56:04;;;;;;;;;;;;;;;1.04;100.00;95461.38;1026717;28;19929;-70
2021/03/15 00:56:34;;;;;;;;;;;;;;;0.87;100.00;95431.88;1027358;28;19929;-70
2021/03/15 00:57:05;;;;;;;;;;;;;;;1.05;100.00;95460.38;1028039;28;19921;-70
2021/03/15 00:57:35;;;;;;;;;;;;;;;1.03;100.00;95472.69;1031308;28;19913;-68
2021/03/15 00:58:05;;;;;;;;;;;;;;;1.02;100.00;95454.81;1025553;28;19918;-70
2021/03/15 00:58:36;;;;;;;;;;;;;;;1.05;100.00;95462.94;1027205;28;19918;-71
2021/03/15 00:59:06;;;;;;;;;;;;;;;1.05;100.00;95462.16;1031862;28;19928;-69
2021/03/15 00:59:36;;;;;;;;;;;;;;;1.05;100.00;95462.16;1031868;28;20007;-71
2021/03/15 01:00:07;;;;;;;;;;;;;;;1.05;100.00;95467.34;1023642;28;20558;-70
2021/03/15 01:00:38;;;;;;;;;;;;;;;1.05;100.00;95459.59;1026086;28;19922;-70
2021/03/15 01:01:08;;;;;;;;;;;;;;;1.05;100.00;95460.38;1029944;28;19918;-70
2021/03/15 01:01:38;;;;;;;;;;;;;;;1.04;100.00;95453.63;1020403;29;19923;-69
2021/03/15 01:02:09;;;;;;;;;;;;;;;1.06;100.00;95450.81;1021830;28;19961;-70
2021/03/15 01:02:39;;;;;;;;;;;;;;;1.06;100.00;95456.00;1022643;28;20403;-70
2021/03/15 01:03:09;;;;;;;;;;;;;;;1.06;100.00;95456.78;1019687;29;19955;-71
2021/03/15 01:03:40;;;;;;;;;;;;;;;1.06;100.00;95450.81;1023446;29;20605;-70
2021/03/15 01:04:11;;;;;;;;;;;;;;;1.08;100.00;95454.78;1021967;28;19942;-68
2021/03/15 01:04:41;;;;;;;;;;;;;;;1.09;100.00;95453.00;1028973;28;20630;-71
2021/03/15 01:05:12;;;;;;;;;;;;;;;1.09;100.00;95453.78;1035396;28;19983;-71
2021/03/15 01:05:43;;;;;;;;;;;;;;;1.11;100.00;95449.19;1031664;28;19906;-70
2021/03/15 01:06:13;;;;;;;;;;;;;;;1.12;100.00;95450.78;1021276;28;19917;-70
2021/03/15 01:06:44;;;;;;;;;;;;;;;0.92;100.00;95413.97;1022045;29;19907;-70
2021/03/15 01:07:14;;;;;;;;;;;;;;;1.12;100.00;95450.78;1019792;29;19911;-70
2021/03/15 01:07:44;;;;;;;;;;;;;;;1.12;100.00;95450.78;1020502;28;19914;-70
2021/03/15 01:08:15;;;;;;;;;;;;;;;1.13;100.00;95448.97;1022615;29;19922;-69
2021/03/15 01:08:45;;;;;;;;;;;;;;;1.13;100.00;95454.94;1013755;29;20008;-70
2021/03/15 01:09:15;;;;;;;;;;;;;;;1.11;100.00;95454.38;1019230;29;19962;-70
2021/03/15 01:09:46;;;;;;;;;;;;;;;1.14;100.00;95448.78;1019711;29;20054;-70
2021/03/15 01:10:17;;;;;;;;;;;;;;;1.14;100.00;95446.19;1018673;28;19963;-70
2021/03/15 01:10:47;;;;;;;;;;;;;;;1.13;100.00;95454.94;1024612;28;20008;-70
2021/03/15 01:11:17;;;;;;;;;;;;;;;1.12;100.00;95455.16;1027204;28;19913;-70
2021/03/15 01:11:48;;;;;;;;;;;;;;;1.13;100.00;95452.34;1027872;28;19906;-70
2021/03/15 01:12:18;;;;;;;;;;;;;;;1.12;100.00;95453.34;1030761;28;19946;-70
2021/03/15 01:12:48;;;;;;;;;;;;;;;1.12;100.00;95452.56;1024658;28;19909;-69
2021/03/15 01:13:19;;;;;;;;;;;;;;;1.14;100.00;95453.94;1023019;29;19914;-70
2021/03/15 01:13:49;;;;;;;;;;;;;;;1.12;100.00;95445.59;1023670;29;20410;-69
2021/03/15 01:14:19;;;;;;;;;;;;;;;1.14;100.00;95446.19;1023802;28;19918;-70
2021/03/15 01:14:50;;;;;;;;;;;;;;;1.14;100.00;95446.19;1020327;28;19911;-70
2021/03/15 01:15:20;;;;;;;;;;;;;;;1.15;100.00;95445.19;1026334;28;20376;-70
2021/03/15 01:15:50;;;;;;;;;;;;;;;1.13;100.00;95447.19;1023896;29;20017;-71
2021/03/15 01:16:21;;;;;;;;;;;;;;;1.13;100.00;95447.19;1024154;28;19921;-70
2021/03/15 01:16:51;;;;;;;;;;;;;;;1.13;100.00;95447.19;1022366;28;19914;-68
2021/03/15 01:17:21;;;;;;;;;;;;;;;1.13;100.00;95442.00;1019779;28;20416;-69
2021/03/15 01:17:52;;;;;;;;;;;;;;;1.12;100.00;95440.44;1023445;28;19918;-70
2021/03/15 01:18:22;;;;;;;;;;;;;;;1.13;100.00;95439.44;1020805;29;19922;-71
2021/03/15 01:18:52;;;;;;;;;;;;;;;1.12;100.00;95443.03;1021600;28;20159;-71
2021/03/15 01:19:24;;;;;;;;;;;;;;;1.12;100.00;95440.44;1025211;28;19914;-71
2021/03/15 01:19:54;;;;;;;;;;;;;;;1.11;100.00;95446.63;1023879;28;19969;-71
2021/03/15 01:20:24;;;;;;;;;;;;;;;1.11;100.00;95440.66;1027182;28;19953;-69
2021/03/15 01:20:55;;;;;;;;;;;;;;;1.11;100.00;95443.25;1025976;28;19941;-70
2021/03/15 01:21:25;;;;;;;;;;;;;;;1.09;100.00;95435.69;1022676;28;20364;-70
2021/03/15 01:21:55;;;;;;;;;;;;;;;1.09;100.00;95445.25;1035298;28;19929;-70
2021/03/15 01:22:25;;;;;;;;;;;;;;;1.06;100.00;95441.28;1033678;28;19909;-69
2021/03/15 01:22:56;;;;;;;;;;;;;;;1.04;100.00;95435.53;1027054;28;19950;-71
2021/03/15 01:23:26;;;;;;;;;;;;;;;1.05;100.00;95436.34;1028588;28;19912;-69
2021/03/15 01:23:58;;;;;;;;;;;;;;;1.03;100.00;95436.53;1027387;28;19908;-70
2021/03/15 01:24:28;;;;;;;;;;;;;;;1.00;100.00;95444.69;1023458;28;19981;-71
2021/03/15 01:24:58;;;;;;;;;;;;;;;0.99;100.00;95444.91;1021606;29;19969;-70
2021/03/15 01:25:32;;;;;;;;;;;;;;;0.97;100.00;95432.19;1022365;28;20293;-71
2021/03/15 01:26:03;;;;;;;;;;;;;;;0.96;100.00;95445.34;1023522;28;19918;-67
2021/03/15 01:26:33;;;;;;;;;;;;;;;0.91;100.00;95445.97;1024183;28;19949;-70
2021/03/15 01:27:03;;;;;;;;;;;;;;;0.90;100.00;95441.78;1025528;28;19918;-69
2021/03/15 01:27:34;;;;;;;;;;;;;;;0.86;100.00;95444.00;1022154;28;20468;-70
2021/03/15 01:28:05;;;;;;;;;;;;;;;0.84;100.00;95445.19;1023491;28;19923;-70
2021/03/15 01:28:35;;;;;;;;;;;;;;;0.83;100.00;95444.41;1031738;28;20360;-71
2021/03/15 01:29:05;;;;;;;;;;;;;;;0.60;100.00;95411.38;1030073;28;19914;-68
2021/03/15 01:29:35;;;;;;;;;;;;;;;0.79;100.00;95434.72;1029399;28;19926;-69
2021/03/15 01:30:13;;;;;;;;;;;;;;;0.78;100.00;95446.06;1035251;28;19971;-70
2021/03/15 01:30:44;;;;;;;;;;;;;;;0.75;100.00;95436.13;1027368;28;19949;-67
2021/03/15 01:31:14;;;;;;;;;;;;;;;0.74;100.00;95437.13;1021802;29;19965;-67
2021/03/15 01:31:44;;;;;;;;;;;;;;;0.73;100.00;95440.69;1022012;29;20435;-71
2021/03/15 01:32:14;;;;;;;;;;;;;;;0.70;100.00;95432.41;1024359;28;19923;-70
2021/03/15 01:32:45;;;;;;;;;;;;;;;0.73;100.00;95438.13;1027703;28;20403;-71
2021/03/15 01:33:15;;;;;;;;;;;;;;;0.72;100.00;95437.34;1030459;28;19969;-69
2021/03/15 01:33:46;;;;;;;;;;;;;;;0.74;100.00;95437.94;1029586;28;19926;-70
2021/03/15 01:34:16;;;;;;;;;;;;;;;0.76;100.00;95435.13;1035116;28;19988;-70
2021/03/15 01:34:46;;;;;;;;;;;;;;;0.76;100.00;95435.13;1031588;28;19953;-70
2021/03/15 01:35:17;;;;;;;;;;;;;;;0.76;100.00;95432.53;1029605;28;19925;-70
2021/03/15 01:35:48;;;;;;;;;;;;;;;0.78;100.00;95435.72;1028492;28;19925;-71
2021/03/15 01:36:18;;;;;;;;;;;;;;;0.78;100.00;95428.75;1035145;28;20315;-69
2021/03/15 01:36:48;;;;;;;;;;;;;;;0.78;100.00;95425.38;1035736;28;19967;-70
2021/03/15 01:37:19;;;;;;;;;;;;;;;0.79;100.00;95429.53;1032529;28;19917;-68
2021/03/15 01:37:49;;;;;;;;;;;;;;;0.78;100.00;95426.19;1029758;28;19984;-70
2021/03/15 01:38:20;;;;;;;;;;;;;;;0.79;100.00;95427.75;1034560;28;19948;-71
2021/03/15 01:38:50;;;;;;;;;;;;;;;0.78;100.00;95427.97;1027633;28;19961;-70
2021/03/15 01:39:20;;;;;;;;;;;;;;;0.79;100.00;95422.59;1023157;29;19924;-70
2021/03/15 01:39:51;;;;;;;;;;;;;;;0.81;100.00;95427.56;1020819;29;20059;-67
2021/03/15 01:40:21;;;;;;;;;;;;;;;0.82;100.00;95429.91;1022846;28;19918;-71
2021/03/15 01:40:51;;;;;;;;;;;;;;;0.84;100.00;95427.13;1022561;28;20503;-70
2021/03/15 01:41:22;;;;;;;;;;;;;;;0.84;100.00;95424.53;1021764;28;19946;-68
2021/03/15 01:41:52;;;;;;;;;;;;;;;0.85;100.00;95423.56;1022265;29;19941;-72
2021/03/15 01:42:22;;;;;;;;;;;;;;;0.85;100.00;95423.56;1022662;28;19918;-72
2021/03/15 01:42:52;;;;;;;;;;;;;;;0.85;100.00;95420.97;1027577;28;19915;-70
2021/03/15 01:43:23;;;;;;;;;;;;;;;0.82;100.00;95419.59;1026173;28;19921;-70
2021/03/15 01:43:53;;;;;;;;;;;;;;;0.88;100.00;95421.34;1029841;28;19920;-71
2021/03/15 01:44:23;;;;;;;;;;;;;;;0.91;100.00;95422.72;1026411;28;20359;-71
2021/03/15 01:44:54;;;;;;;;;;;;;;;0.90;100.00;95421.13;1027516;28;19969;-69
2021/03/15 01:45:24;;;;;;;;;;;;;;;0.91;100.00;95420.94;1030490;28;19917;-68
2021/03/15 01:45:54;;;;;;;;;;;;;;;0.93;100.00;95421.50;1025337;28;20394;-69
2021/03/15 01:46:25;;;;;;;;;;;;;;;0.93;100.00;95421.50;1022956;29;20013;-71
2021/03/15 01:46:55;;;;;;;;;;;;;;;0.92;100.00;95416.53;1019477;29;19922;-69
2021/03/15 01:47:25;;;;;;;;;;;;;;;0.91;100.00;95409.81;1010572;29;19915;-71
2021/03/15 01:47:56;;;;;;;;;;;;;;;0.95;100.00;95418.72;1016447;28;20528;-68
2021/03/15 01:48:26;;;;;;;;;;;;;;;0.72;100.00;95380.53;1018468;29;19911;-69
2021/03/15 01:48:56;;;;;;;;;;;;;;;0.92;100.00;95413.97;1020260;28;20022;-70
2021/03/15 01:49:26;;;;;;;;;;;;;;;0.94;100.00;95411.97;1027476;28;19906;-71
2021/03/15 01:49:57;;;;;;;;;;;;;;;0.93;100.00;95411.16;1029562;28;20502;-70
2021/03/15 01:50:27;;;;;;;;;;;;;;;0.95;100.00;95413.53;1025390;28;19910;-68
2021/03/15 01:50:57;;;;;;;;;;;;;;;0.93;100.00;95413.75;1026584;28;20315;-70
2021/03/15 01:51:28;;;;;;;;;;;;;;;0.91;100.00;95414.97;1023641;29;19946;-71
2021/03/15 01:51:58;;;;;;;;;;;;;;;0.91;100.00;95415.75;1017388;28;20672;-70
2021/03/15 01:52:28;;;;;;;;;;;;;;;0.89;100.00;95415.16;1021470;28;19922;-71
2021/03/15 01:52:59;;;;;;;;;;;;;;;0.90;100.00;95414.16;1026721;28;19915;-70
2021/03/15 01:53:29;;;;;;;;;;;;;;;0.87;100.00;95411.19;1025505;28;19916;-71
2021/03/15 01:53:59;;;;;;;;;;;;;;;0.89;100.00;95416.97;1017560;29;19982;-71
2021/03/15 01:54:29;;;;;;;;;;;;;;;0.89;100.00;95414.38;1024358;28;19911;-70
2021/03/15 01:55:00;;;;;;;;;;;;;;;0.88;100.00;95416.19;1022890;29;20536;-70
2021/03/15 01:55:30;;;;;;;;;;;;;;;0.87;100.00;95417.19;1019713;29;19907;-70
2021/03/15 01:56:01;;;;;;;;;;;;;;;0.85;100.00;95416.59;1018781;29;19926;-70
2021/03/15 01:56:31;;;;;;;;;;;;;;;0.84;100.00;95409.84;1013290;29;19911;-70
2021/03/15 01:57:01;;;;;;;;;;;;;;;0.83;100.00;95408.25;1022790;29;19911;-70
2021/03/15 01:57:37;;;;;;;;;;;;;;;0.83;100.00;95420.38;1027480;28;19985;-72
2021/03/15 01:58:08;;;;;;;;;;;;;;;0.83;100.00;95413.41;1032045;28;19917;-69
2021/03/15 01:58:38;;;;;;;;;;;;;;;0.83;100.00;95416.00;1024746;28;20487;-70
2021/03/15 01:59:08;;;;;;;;;;;;;;;0.60;100.00;95382.97;1026796;28;19945;-70
2021/03/15 01:59:39;;;;;;;;;;;;;;;0.84;100.00;95411.63;1026776;28;19921;-70
2021/03/15 02:00:09;;;;;;;;;;;;;;;0.85;100.00;95410.63;1027610;28;19910;-70
2021/03/15 02:00:40;;;;;;;;;;;;;;;0.82;100.00;95409.25;1024470;28;19957;-69
2021/03/15 02:01:11;;;;;;;;;;;;;;;0.82;100.00;95411.06;1022458;28;20437;-70
2021/03/15 02:01:42;;;;;;;;;;;;;;;0.80;100.00;95406.09;1023414;29;20407;-69
2021/03/15 02:02:12;;;;;;;;;;;;;;;0.80;100.00;95407.88;1023825;28;19911;-70
2021/03/15 02:02:44;;;;;;;;;;;;;;;0.78;100.00;95410.69;1025071;28;20000;-68
2021/03/15 02:03:14;;;;;;;;;;;;;;;0.76;100.00;95404.94;1030066;28;19966;-71
2021/03/15 02:03:45;;;;;;;;;;;;;;;0.77;100.00;95406.53;1027378;28;19906;-70
2021/03/15 02:04:15;;;;;;;;;;;;;;;0.77;100.00;95403.94;1027478;28;19910;-71
2021/03/15 02:04:45;;;;;;;;;;;;;;;0.54;100.00;95375.28;1025390;28;19941;-69
2021/03/15 02:05:16;;;;;;;;;;;;;;;0.78;100.00;95409.91;1026192;28;20017;-70
2021/03/15 02:05:46;;;;;;;;;;;;;;;0.78;100.00;95407.31;1031314;28;19921;-71
2021/03/15 02:06:16;;;;;;;;;;;;;;;0.79;100.00;95408.88;1031387;28;19921;-70
2021/03/15 02:06:46;;;;;;;;;;;;;;;0.80;100.00;95407.88;1031355;28;19914;-71
2021/03/15 02:07:17;;;;;;;;;;;;;;;0.82;100.00;95403.31;1024504;28;20564;-68
2021/03/15 02:07:47;;;;;;;;;;;;;;;0.81;100.00;95404.31;1023349;29;19910;-69
2021/03/15 02:08:17;;;;;;;;;;;;;;;0.82;100.00;95401.50;1022964;28;19914;-69
2021/03/15 02:08:48;;;;;;;;;;;;;;;0.82;100.00;95405.91;1021463;29;19955;-70
2021/03/15 02:09:18;;;;;;;;;;;;;;;0.83;100.00;95400.50;1025871;28;20452;-70
2021/03/15 02:09:48;;;;;;;;;;;;;;;0.82;100.00;95403.31;1028705;28;19931;-70
2021/03/15 02:10:19;;;;;;;;;;;;;;;0.83;100.00;95397.91;1031533;28;19929;-70
2021/03/15 02:10:49;;;;;;;;;;;;;;;0.84;100.00;95406.44;1029602;28;20044;-70
2021/03/15 02:11:28;;;;;;;;;;;;;;;0.84;100.00;95398.72;1026135;28;19918;-70
2021/03/15 02:12:10;;;;;;;;;;;;;;;0.83;100.00;95404.88;1029981;28;19918;-71
2021/03/15 02:12:49;;;;;;;;;;;;;;;0.83;100.00;95399.72;1027687;28;19918;-69
2021/03/15 02:13:38;;;;;;;;;;;;;;;0.83;100.00;95403.09;1029577;28;20277;-69
2021/03/15 02:14:20;;;;;;;;;;;;;;;0.82;100.00;95403.31;1031388;28;19910;-70
2021/03/15 02:14:56;;;;;;;;;;;;;;;0.82;100.00;95405.91;1027992;28;20579;-70
2021/03/15 02:15:45;;;;;;;;;;;;;;;0.83;100.00;95399.72;1026108;28;19970;-70
2021/03/15 02:16:34;;;;;;;;;;;;;;;0.82;100.00;95398.16;1027435;28;20066;-70
2021/03/15 02:17:25;;;;;;;;;;;;;;;0.81;100.00;95394.00;1029626;28;20008;-71
2021/03/15 02:18:02;;;;;;;;;;;;;;;0.80;100.00;95395.75;1030810;28;19918;-70
2021/03/15 02:18:34;;;;;;;;;;;;;;;0.81;100.00;95391.41;1027639;28;19910;-71
2021/03/15 02:19:16;;;;;;;;;;;;;;;0.81;100.00;95396.56;1021595;29;20399;-70
2021/03/15 02:19:59;;;;;;;;;;;;;;;0.82;100.00;95393.75;1020908;28;19910;-71
2021/03/15 02:20:38;;;;;;;;;;;;;;;0.81;100.00;95394.78;1018465;29;20462;-70
2021/03/15 02:21:14;;;;;;;;;;;;;;;0.81;100.00;95396.56;1021938;29;19922;-70
2021/03/15 02:21:57;;;;;;;;;;;;;;;0.59;100.00;95371.06;1022523;28;19911;-70
2021/03/15 02:22:33;;;;;;;;;;;;;;;0.82;100.00;95392.97;1029833;28;19914;-70
2021/03/15 02:23:22;;;;;;;;;;;;;;;0.85;100.00;95397.72;1029523;28;19913;-70
2021/03/15 02:24:09;;;;;;;;;;;;;;;0.83;100.00;95399.72;1022624;29;19910;-70
2021/03/15 02:24:58;;;;;;;;;;;;;;;0.80;100.00;95394.97;1024022;28;19922;-70
2021/03/15 02:25:46;;;;;;;;;;;;;;;0.80;100.00;95400.91;1022015;28;20008;-70
2021/03/15 02:26:26;;;;;;;;;;;;;;;0.79;100.00;95393.41;1030975;28;20379;-70
2021/03/15 02:27:22;;;;;;;;;;;;;;;0.78;100.00;95392.59;1034592;28;19917;-69
2021/03/15 02:28:05;;;;;;;;;;;;;;;0.81;100.00;95394.78;1009129;29;20361;-70
2021/03/15 02:28:47;;;;;;;;;;;;;;;0.83;100.00;95397.13;1023580;28;19911;-71
2021/03/15 02:29:35;;;;;;;;;;;;;;;0.81;100.00;95392.19;1031152;28;19917;-69
2021/03/15 02:30:25;;;;;;;;;;;;;;;0.84;100.00;95388.38;1033004;28;19920;-72
2021/03/15 02:31:13;;;;;;;;;;;;;;;0.83;100.00;95394.56;1031156;28;19921;-69
2021/03/15 02:31:46;;;;;;;;;;;;;;;0.81;100.00;95391.41;1028749;28;20462;-71
2021/03/15 02:32:32;;;;;;;;;;;;;;;0.84;100.00;95390.97;1030425;28;20646;-70
2021/03/15 02:33:21;;;;;;;;;;;;;;;0.84;100.00;95396.13;1031434;28;20008;-71
2021/03/15 02:33:59;;;;;;;;;;;;;;;0.84;100.00;95391.78;1028904;28;19976;-70
2021/03/15 02:34:48;;;;;;;;;;;;;;;0.84;100.00;95393.53;1022803;29;20557;-70
2021/03/15 02:35:19;;;;;;;;;;;;;;;0.87;100.00;95393.13;1027972;28;19943;-70
2021/03/15 02:35:49;;;;;;;;;;;;;;;0.87;100.00;95393.13;1025127;28;19941;-71
2021/03/15 02:36:19;;;;;;;;;;;;;;;0.87;100.00;95390.53;1022545;29;19942;-70
2021/03/15 02:36:50;;;;;;;;;;;;;;;0.87;100.00;95391.34;1019179;29;20448;-70
2021/03/15 02:37:21;;;;;;;;;;;;;;;0.84;100.00;95388.38;1027057;28;19925;-70
2021/03/15 02:37:53;;;;;;;;;;;;;;;0.84;100.00;95386.63;1021426;29;20005;-70
2021/03/15 02:38:23;;;;;;;;;;;;;;;0.85;100.00;95382.22;1022305;28;20311;-70
2021/03/15 02:38:53;;;;;;;;;;;;;;;0.85;100.00;95382.22;1027179;28;19922;-68
2021/03/15 02:39:24;;;;;;;;;;;;;;;0.87;100.00;95380.22;1031759;28;19914;-71
2021/03/15 02:39:55;;;;;;;;;;;;;;;0.41;100.00;95319.41;1034511;28;19984;-70
2021/03/15 02:40:29;;;;;;;;;;;;;;;0.83;100.00;95385.00;1030831;28;19921;-69
2021/03/15 02:41:00;;;;;;;;;;;;;;;0.84;100.00;95380.63;1026804;28;19946;-70
2021/03/15 02:41:30;;;;;;;;;;;;;;;0.87;100.00;95386.19;1027453;28;19922;-71
2021/03/15 02:42:01;;;;;;;;;;;;;;;0.84;100.00;95376.28;1021611;28;20017;-69
2021/03/15 02:42:32;;;;;;;;;;;;;;;0.84;100.00;95385.78;1021995;28;19913;-70
2021/03/15 02:43:03;;;;;;;;;;;;;;;0.81;100.00;95381.06;1027082;28;19918;-70
2021/03/15 02:43:50;;;;;;;;;;;;;;;0.80;100.00;95382.06;1023688;28;19911;-70
2021/03/15 02:44:20;;;;;;;;;;;;;;;0.78;100.00;95377.13;1014986;29;20497;-70
2021/03/15 02:44:51;;;;;;;;;;;;;;;0.79;100.00;95375.31;1018831;29;19925;-70
2021/03/15 02:45:22;;;;;;;;;;;;;;;0.79;100.00;95383.06;1021424;28;19918;-70
2021/03/15 02:45:54;;;;;;;;;;;;;;;0.77;100.00;95380.72;1023567;28;19911;-70
2021/03/15 02:46:25;;;;;;;;;;;;;;;0.78;100.00;95373.75;1025295;28;19918;-69